Airfield :
LOGIN :

Register | Disclaimer

   EN    FR    IT 

 










Legend :    VFR   Marginal VFR   IFR   Intensive IFR   Very Intensive IFR
Visi :
Ceiling :
>= 8 km
>= 3000ft
5 to 8 km
1000 to 3000 ft
1500m to 5 km
500 to 1000 ft
800 to 1500m
200 to 500 ft
< 800m
< 200 ft
Symbols :   Thunderstorms  Fog  Heavy snow  Heavy precipitations  Wind > 20 kt
SIGMETs :     Misc.  Thunderstorms  Icing  Turbulence  Mountain Waves  Volcanic Ashes






- Airport Elevation : 291 ft
- IATA code : ORY


LFPO - Paris-Orly

CURRENT METAR :
  • 200130Z AUTO 31005KT CAVOK 05/02 Q1022 NOSIG

EXPIRED METARs :
  • 200100Z AUTO 31005KT CAVOK 06/02 Q1022 NOSIG
  • 200030Z AUTO 34006KT CAVOK 06/02 Q1022 NOSIG
  • 200000Z 35007KT CAVOK 06/03 Q1021 NOSIG
  • 192330Z 35006KT CAVOK 07/03 Q1021 NOSIG
  • 192300Z 01007KT CAVOK 07/03 Q1021 NOSIG
  • 192230Z 02008KT 9999 FEW025 07/04 Q1021 NOSIG
  • 192200Z 02011KT 9999 SCT024 SCT076 08/04 Q1021 NOSIG
  • 192130Z 01010KT 340V040 9999 FEW020 BKN076 09/05 Q1020 NOSIG
  • 192100Z 01010KT 9999 SCT018 BKN040 09/06 Q1020 NOSIG

TAF AMD TAF LFPO
Valid from the 20 at 00:00 until the 21 at 06:00 UTC


200032Z 2000/2106 32008KT CAVOK
FM201200 32012KT 9999 BKN040
PROB30
TEMPO 2012/2015 SCT040TCU
PROB40
TEMPO 2015/2017 35010G25KT -SHRA SCT035TCU
ATIS : +33 1 49 75 65 80



MET'MAP, your aeronautical weather chart ! - Copyright ORBIFLY December 2007 - Disclaimer

ORBIFLY MET'MAP TEAM :

Programming & Development : Alexandra Zaïnal
Original concept : Baudouin d'Aumeries
Technical & hardware support : Manuel Goepfert
Assistance : Marc-Olivier Méhu




SOURCES & CREDITS :

   NOAA